Time;durP1;ratioP1;P1;durP2;ratioP2;P2;SDS_P1;SDS_P2;PMS_P1;PMS_P2;Temp;Humidity;BMP_temperature;BMP_pressure;BME280_temperature;BME280_humidity;BME280_pressure;Samples;Min_cycle;Max_cycle;Signal;HPM_P1;HPM_P2
2023/01/26 00:01:37;;;;;;;13.43;3.25;;;;;;;;;;5069511;28;20492;-63
2023/01/26 00:04:09;;;;;;;10.05;2.90;;;;;;;;;;5035563;28;20507;-63
2023/01/26 00:06:40;;;;;;;8.50;3.20;;;;;;;;;;5052427;28;20040;-63
2023/01/26 00:09:14;;;;;;;8.45;2.65;;;;;;;;;;5052591;28;20064;-63
2023/01/26 00:11:44;;;;;;;8.68;2.75;;;;;;;;;;5069151;28;20071;-63
2023/01/26 00:14:16;;;;;;;7.53;3.10;;;;;;;;;;5020109;28;20531;-63
2023/01/26 00:16:46;;;;;;;6.43;2.53;;;;;;;;;;5027835;28;20528;-63
2023/01/26 00:19:17;;;;;;;7.28;2.95;;;;;;;;;;5012697;28;20064;-63
2023/01/26 00:21:48;;;;;;;5.78;2.78;;;;;;;;;;5025141;28;20532;-63
2023/01/26 00:24:19;;;;;;;6.85;2.50;;;;;;;;;;5028819;28;20045;-64
2023/01/26 00:26:49;;;;;;;10.32;2.85;;;;;;;;;;4996153;28;20064;-63
2023/01/26 00:29:20;;;;;;;9.10;3.00;;;;;;;;;;5031318;28;20061;-63
2023/01/26 00:31:50;;;;;;;7.15;2.53;;;;;;;;;;5065272;28;20068;-63
2023/01/26 00:34:21;;;;;;;9.23;2.75;;;;;;;;;;5065018;28;20072;-64
2023/01/26 00:36:53;;;;;;;10.35;2.80;;;;;;;;;;5048679;28;20052;-63
2023/01/26 00:39:24;;;;;;;;;;;;;;;;;;5035549;28;20156;-63
2023/01/26 00:42:08;;;;;;;9.25;2.33;;;;;;;;;;5051706;28;19920;-65
2023/01/26 00:44:41;;;;;;;10.38;2.72;;;;;;;;;;5026675;28;20053;-63
2023/01/26 00:47:14;;;;;;;5.47;2.17;;;;;;;;;;4995988;28;20149;-64
2023/01/26 00:49:45;;;;;;;10.65;2.38;;;;;;;;;;5028333;28;20061;-63
2023/01/26 00:52:16;;;;;;;6.20;2.35;;;;;;;;;;5028151;28;20056;-63
2023/01/26 00:54:46;;;;;;;8.50;2.45;;;;;;;;;;4982963;28;20065;-63
2023/01/26 00:57:17;;;;;;;5.28;2.65;;;;;;;;;;5008647;28;20066;-63
2023/01/26 00:59:48;;;;;;;9.30;2.42;;;;;;;;;;5004875;28;20410;-63
2023/01/26 01:02:19;;;;;;;8.38;2.33;;;;;;;;;;4950003;29;20062;-63
2023/01/26 01:04:49;;;;;;;9.02;2.97;;;;;;;;;;4934590;29;20070;-64
2023/01/26 01:07:20;;;;;;;6.50;2.17;;;;;;;;;;4965595;28;20063;-63
2023/01/26 01:09:51;;;;;;;7.88;2.78;;;;;;;;;;4949907;29;20059;-63
2023/01/26 01:12:22;;;;;;;10.32;2.72;;;;;;;;;;4949895;29;20067;-63
2023/01/26 01:14:52;;;;;;;6.32;2.28;;;;;;;;;;4968736;28;20051;-63
2023/01/26 01:17:22;;;;;;;18.23;3.03;;;;;;;;;;4953059;28;20067;-63
2023/01/26 01:19:53;;;;;;;9.10;2.50;;;;;;;;;;4968775;28;20066;-63
2023/01/26 01:22:23;;;;;;;12.23;2.45;;;;;;;;;;4962989;28;20054;-63
2023/01/26 01:24:53;;;;;;;9.20;2.40;;;;;;;;;;4988608;28;20058;-63
2023/01/26 01:27:24;;;;;;;8.27;2.25;;;;;;;;;;4988253;28;20081;-63
2023/01/26 01:29:55;;;;;;;11.50;2.65;;;;;;;;;;4978319;28;20058;-63
2023/01/26 01:32:26;;;;;;;8.23;2.25;;;;;;;;;;4968959;28;20074;-64
2023/01/26 01:34:56;;;;;;;12.30;2.25;;;;;;;;;;4952832;28;20063;-63
2023/01/26 01:37:29;;;;;;;8.57;2.67;;;;;;;;;;4937858;28;20097;-63
2023/01/26 01:40:00;;;;;;;10.27;2.55;;;;;;;;;;5027702;28;20549;-63
2023/01/26 01:42:33;;;;;;;8.63;3.20;;;;;;;;;;5027891;28;20391;-62
2023/01/26 01:45:37;;;;;;;12.45;2.85;;;;;;;;;;4994844;28;20057;-63
2023/01/26 01:48:32;;;;;;;9.32;2.20;;;;;;;;;;5027594;28;20068;-63
2023/01/26 01:51:13;;;;;;;10.90;2.55;;;;;;;;;;4989627;28;20098;-63
2023/01/26 01:53:47;;;;;;;8.75;2.05;;;;;;;;;;4972644;28;20054;-63
2023/01/26 01:56:24;;;;;;;8.48;2.17;;;;;;;;;;4973198;28;20062;-63
2023/01/26 01:58:59;;;;;;;6.13;2.13;;;;;;;;;;4967589;28;20047;-63
2023/01/26 02:01:30;;;;;;;4.90;2.30;;;;;;;;;;4949413;29;20051;-63
2023/01/26 02:04:03;;;;;;;5.80;2.10;;;;;;;;;;4949546;29;20546;-63
2023/01/26 02:06:49;;;;;;;5.78;2.40;;;;;;;;;;4930187;29;20051;-63
2023/01/26 02:12:20;;;;;;;8.73;2.42;;;;;;;;;;4898646;29;20504;-63
2023/01/26 02:14:52;;;;;;;13.93;2.35;;;;;;;;;;4937689;29;20067;-63
2023/01/26 02:17:23;;;;;;;12.30;2.78;;;;;;;;;;4949390;29;20059;-63
2023/01/26 02:20:22;;;;;;;7.00;2.97;;;;;;;;;;4949502;29;20093;-66
2023/01/26 02:23:08;;;;;;;9.98;2.55;;;;;;;;;;4898315;29;20060;-64
2023/01/26 02:25:47;;;;;;;9.63;2.85;;;;;;;;;;4898710;29;20060;-64
2023/01/26 02:28:21;;;;;;;8.70;2.83;;;;;;;;;;4936413;29;20063;-63
2023/01/26 02:30:53;;;;;;;8.75;2.55;;;;;;;;;;4957663;28;20058;-63
2023/01/26 02:33:27;;;;;;;13.98;2.45;;;;;;;;;;4952553;28;20414;-63
2023/01/26 02:36:02;;;;;;;7.85;2.45;;;;;;;;;;4978214;28;20050;-63
2023/01/26 02:38:38;;;;;;;;;;;;;;;;;;4968838;28;20077;-63
2023/01/26 02:42:37;;;;;;;5.78;2.05;;;;;;;;;;4971184;28;19930;-63
2023/01/26 02:44:07;;;;;;;7.88;2.40;;;;;;;;;;4971539;28;20055;-63
2023/01/26 02:46:38;;;;;;;7.80;2.35;;;;;;;;;;4933107;29;20044;-63
2023/01/26 02:51:58;;;;;;;9.63;2.17;;;;;;;;;;4876636;29;20057;-64
2023/01/26 02:57:17;;;;;;;6.53;2.63;;;;;;;;;;4910797;29;20056;-64
2023/01/26 02:59:48;;;;;;;12.48;2.47;;;;;;;;;;4864072;29;20060;-64
2023/01/26 03:02:19;;;;;;;7.18;2.33;;;;;;;;;;4895586;29;20418;-63
2023/01/26 03:04:49;;;;;;;5.50;2.20;;;;;;;;;;4860712;29;20208;-64
2023/01/26 03:07:20;;;;;;;8.35;2.60;;;;;;;;;;4914027;29;20048;-63
2023/01/26 03:09:52;;;;;;;11.43;2.40;;;;;;;;;;4913645;29;20509;-63
2023/01/26 03:12:23;;;;;;;6.15;2.35;;;;;;;;;;4879056;29;20064;-64
2023/01/26 03:17:42;;;;;;;8.43;2.40;;;;;;;;;;4932696;29;20066;-62
2023/01/26 03:28:42;;;;;;;5.45;1.95;;;;;;;;;;4934945;28;20050;-62
2023/01/26 03:31:14;;;;;;;4.10;2.03;;;;;;;;;;4944424;29;20455;-64
2023/01/26 03:33:47;;;;;;;5.55;2.58;;;;;;;;;;4913754;29;20048;-63
2023/01/26 03:36:17;;;;;;;9.57;2.80;;;;;;;;;;4932061;29;20055;-63
2023/01/26 03:38:48;;;;;;;9.82;2.70;;;;;;;;;;4932365;29;20063;-63
2023/01/26 03:58:15;;;;;;;5.97;2.70;;;;;;;;;;4873714;29;20064;-63
2023/01/26 04:00:50;;;;;;;6.78;2.90;;;;;;;;;;4912852;29;20063;-64
2023/01/26 04:08:58;;;;;;;12.75;3.42;;;;;;;;;;4919903;29;20457;-63
2023/01/26 04:11:28;;;;;;;7.85;2.55;;;;;;;;;;4896798;29;20492;-63
2023/01/26 04:22:26;;;;;;;11.38;2.90;;;;;;;;;;4859795;29;20589;-63
2023/01/26 04:24:57;;;;;;;8.20;3.05;;;;;;;;;;4886365;29;20426;-63
2023/01/26 04:27:33;;;;;;;11.50;2.70;;;;;;;;;;4902322;29;20063;-63
2023/01/26 04:30:05;;;;;;;7.22;2.85;;;;;;;;;;4931035;29;20520;-63
2023/01/26 04:32:36;;;;;;;6.00;2.45;;;;;;;;;;4844707;29;20436;-63
2023/01/26 04:35:09;;;;;;;6.97;2.55;;;;;;;;;;4856083;29;20518;-63
2023/01/26 04:37:40;;;;;;;7.30;2.40;;;;;;;;;;4871449;29;20072;-63
2023/01/26 04:40:11;;;;;;;8.98;3.10;;;;;;;;;;4909543;29;20056;-63
2023/01/26 04:42:42;;;;;;;8.07;2.70;;;;;;;;;;4931362;28;20062;-63
2023/01/26 04:45:12;;;;;;;9.77;2.88;;;;;;;;;;4899420;29;20055;-63
2023/01/26 04:47:45;;;;;;;8.68;3.17;;;;;;;;;;4879070;29;20524;-63
2023/01/26 04:50:17;;;;;;;9.30;2.70;;;;;;;;;;4911687;29;20160;-63
2023/01/26 04:52:48;;;;;;;9.35;3.03;;;;;;;;;;4912044;29;20409;-63
2023/01/26 04:55:19;;;;;;;8.93;2.60;;;;;;;;;;4865486;29;20507;-63
2023/01/26 04:57:49;;;;;;;9.35;3.03;;;;;;;;;;4879941;29;20053;-63
2023/01/26 05:00:20;;;;;;;8.98;3.85;;;;;;;;;;4871188;29;20414;-63
2023/01/26 05:02:52;;;;;;;9.95;2.80;;;;;;;;;;4870392;29;20053;-63
2023/01/26 05:05:22;;;;;;;6.50;2.97;;;;;;;;;;4892572;29;20406;-64
2023/01/26 05:07:53;;;;;;;10.68;2.63;;;;;;;;;;4910208;29;20134;-63
2023/01/26 05:10:25;;;;;;;6.28;2.83;;;;;;;;;;4890947;29;20049;-62
2023/01/26 05:13:15;;;;;;;9.07;2.70;;;;;;;;;;4898844;29;20056;-63
2023/01/26 05:16:05;;;;;;;8.10;2.90;;;;;;;;;;4899325;29;20575;-63
2023/01/26 05:18:54;;;;;;;8.68;2.88;;;;;;;;;;4882313;29;20425;-62
2023/01/26 05:21:44;;;;;;;6.82;2.83;;;;;;;;;;4905615;29;20087;-62
2023/01/26 05:24:15;;;;;;;11.38;3.13;;;;;;;;;;4877161;29;20048;-62
2023/01/26 05:27:20;;;;;;;6.43;3.05;;;;;;;;;;4911572;29;20060;-62
2023/01/26 05:29:59;;;;;;;6.97;2.70;;;;;;;;;;4879026;29;20065;-63
2023/01/26 05:32:33;;;;;;;6.40;2.45;;;;;;;;;;4892617;29;20060;-64
2023/01/26 05:35:05;;;;;;;9.35;3.42;;;;;;;;;;4892465;29;20048;-63
2023/01/26 05:37:36;;;;;;;7.50;2.60;;;;;;;;;;4843614;29;20062;-63
2023/01/26 05:40:07;;;;;;;6.10;2.83;;;;;;;;;;4813405;29;20062;-63
2023/01/26 05:42:42;;;;;;;8.45;2.97;;;;;;;;;;4846881;29;20055;-63
2023/01/26 05:45:43;;;;;;;6.93;2.53;;;;;;;;;;4826791;29;20435;-63
2023/01/26 05:48:16;;;;;;;7.28;2.70;;;;;;;;;;4820609;29;20463;-63
2023/01/26 05:50:49;;;;;;;9.63;3.03;;;;;;;;;;4859096;29;20045;-63
2023/01/26 05:53:21;;;;;;;9.57;2.95;;;;;;;;;;4898733;29;20044;-62
2023/01/26 05:55:52;;;;;;;11.48;3.13;;;;;;;;;;4873757;29;20459;-63
2023/01/26 05:58:24;;;;;;;6.70;2.72;;;;;;;;;;4870177;29;20053;-63
2023/01/26 06:00:55;;;;;;;9.70;2.80;;;;;;;;;;4869882;29;20064;-63
2023/01/26 06:03:30;;;;;;;6.93;3.13;;;;;;;;;;4825604;29;20400;-63
2023/01/26 06:06:00;;;;;;;11.13;2.97;;;;;;;;;;4851541;29;20050;-62
2023/01/26 06:08:42;;;;;;;6.03;2.58;;;;;;;;;;4833006;29;20455;-63
2023/01/26 06:11:34;;;;;;;7.60;2.67;;;;;;;;;;4782916;29;20051;-63
2023/01/26 06:14:12;;;;;;;6.88;3.00;;;;;;;;;;4793049;29;20060;-63
2023/01/26 06:16:43;;;;;;;8.63;2.88;;;;;;;;;;4821542;29;20515;-63
2023/01/26 06:19:15;;;;;;;7.93;2.80;;;;;;;;;;4858363;29;20073;-64
2023/01/26 06:21:52;;;;;;;9.88;3.45;;;;;;;;;;4895742;29;20056;-64
2023/01/26 06:24:23;;;;;;;5.40;2.58;;;;;;;;;;4879893;29;20071;-63
2023/01/26 06:26:53;;;;;;;8.52;2.53;;;;;;;;;;4813767;29;20113;-63
2023/01/26 06:29:23;;;;;;;9.70;3.10;;;;;;;;;;4862852;29;20494;-63
2023/01/26 06:31:55;;;;;;;6.78;3.20;;;;;;;;;;4842345;29;20511;-63
2023/01/26 06:34:25;;;;;;;7.28;3.15;;;;;;;;;;4826635;29;20058;-64
2023/01/26 06:36:56;;;;;;;4.90;2.58;;;;;;;;;;4873855;29;20061;-64
2023/01/26 06:39:31;;;;;;;9.70;2.40;;;;;;;;;;4836696;29;20061;-64
2023/01/26 06:42:02;;;;;;;8.95;2.50;;;;;;;;;;4824278;29;20054;-64
2023/01/26 06:44:32;;;;;;;4.63;2.35;;;;;;;;;;4857916;29;20060;-63
2023/01/26 06:47:02;;;;;;;9.63;2.42;;;;;;;;;;4858163;29;20065;-64
2023/01/26 06:49:33;;;;;;;4.88;2.47;;;;;;;;;;4854654;29;20069;-63
2023/01/26 06:52:33;;;;;;;8.50;2.80;;;;;;;;;;4876652;29;20049;-63
2023/01/26 06:55:23;;;;;;;9.73;2.58;;;;;;;;;;4812795;29;20070;-63
2023/01/26 06:58:13;;;;;;;7.05;2.13;;;;;;;;;;4821278;29;20058;-63
2023/01/26 07:01:06;;;;;;;6.38;2.55;;;;;;;;;;4821706;29;20058;-64
2023/01/26 07:03:37;;;;;;;6.75;2.75;;;;;;;;;;4800384;29;20051;-63
2023/01/26 07:06:10;;;;;;;8.30;2.35;;;;;;;;;;4798693;29;21170;-64
2023/01/26 07:08:40;;;;;;;5.70;2.88;;;;;;;;;;4782901;29;20070;-64
2023/01/26 07:11:11;;;;;;;6.32;2.58;;;;;;;;;;4781915;29;20059;-64
2023/01/26 07:13:42;;;;;;;6.85;2.63;;;;;;;;;;4794895;29;20552;-63
2023/01/26 07:16:15;;;;;;;5.18;2.30;;;;;;;;;;4751498;30;20463;-64
2023/01/26 07:18:46;;;;;;;5.15;3.13;;;;;;;;;;4794635;29;20567;-63
2023/01/26 07:21:18;;;;;;;6.38;2.50;;;;;;;;;;4755004;29;20057;-63
2023/01/26 07:23:52;;;;;;;6.57;2.47;;;;;;;;;;4803125;29;20074;-64
2023/01/26 07:26:23;;;;;;;5.25;2.58;;;;;;;;;;4808063;29;20088;-63
2023/01/26 07:28:54;;;;;;;6.38;2.88;;;;;;;;;;4841758;29;20049;-64
2023/01/26 07:31:24;;;;;;;7.95;3.13;;;;;;;;;;4885248;29;20051;-63
2023/01/26 07:33:55;;;;;;;6.60;2.90;;;;;;;;;;4918644;29;20070;-64
2023/01/26 07:36:26;;;;;;;8.15;2.22;;;;;;;;;;4967323;28;20543;-63
2023/01/26 07:38:56;;;;;;;4.95;2.53;;;;;;;;;;5009884;28;20068;-64
2023/01/26 07:41:27;;;;;;;7.40;2.60;;;;;;;;;;5011180;28;20052;-64
2023/01/26 07:43:58;;;;;;;7.00;2.35;;;;;;;;;;5036404;28;20057;-65
2023/01/26 07:46:28;;;;;;;7.95;2.47;;;;;;;;;;5036294;28;20111;-64
2023/01/26 07:48:58;;;;;;;28.95;3.47;;;;;;;;;;5035337;28;20059;-64
2023/01/26 07:51:29;;;;;;;6.53;2.42;;;;;;;;;;5069480;28;20075;-63
2023/01/26 07:53:59;;;;;;;5.53;2.75;;;;;;;;;;5069575;28;20056;-63
2023/01/26 07:56:30;;;;;;;6.63;2.40;;;;;;;;;;5003394;28;20048;-64
2023/01/26 07:59:01;;;;;;;6.70;2.22;;;;;;;;;;5069530;28;20574;-63
2023/01/26 08:01:32;;;;;;;6.22;2.60;;;;;;;;;;5069569;28;20508;-63
2023/01/26 08:04:02;;;;;;;5.32;3.53;;;;;;;;;;5019348;28;20398;-63
2023/01/26 08:06:32;;;;;;;6.45;2.58;;;;;;;;;;5035941;28;20550;-63
2023/01/26 08:09:04;;;;;;;4.00;2.03;;;;;;;;;;5069076;28;20056;-64
2023/01/26 08:11:34;;;;;;;6.25;2.40;;;;;;;;;;5069243;28;20051;-63
2023/01/26 08:14:05;;;;;;;8.32;2.97;;;;;;;;;;5069050;28;20416;-64
2023/01/26 08:16:36;;;;;;;6.28;2.13;;;;;;;;;;5069030;28;20048;-64
2023/01/26 08:19:06;;;;;;;6.32;3.67;;;;;;;;;;5069017;28;20525;-63
2023/01/26 08:21:37;;;;;;;6.63;2.13;;;;;;;;;;5068845;28;20049;-64
2023/01/26 08:24:10;;;;;;;5.82;2.63;;;;;;;;;;5019396;28;20061;-63
2023/01/26 08:26:40;;;;;;;8.50;2.33;;;;;;;;;;5018792;28;20052;-64
2023/01/26 08:29:10;;;;;;;7.32;2.70;;;;;;;;;;5068542;28;20488;-63
2023/01/26 08:31:40;;;;;;;5.38;2.33;;;;;;;;;;5068841;28;20055;-64
2023/01/26 08:34:10;;;;;;;6.07;2.35;;;;;;;;;;5068752;28;20052;-63
2023/01/26 08:36:41;;;;;;;6.13;2.50;;;;;;;;;;5068616;28;20079;-64
2023/01/26 08:39:11;;;;;;;5.88;2.70;;;;;;;;;;5068351;28;20606;-63
2023/01/26 08:41:41;;;;;;;4.68;2.47;;;;;;;;;;5068682;28;20191;-63
2023/01/26 08:44:13;;;;;;;8.05;2.58;;;;;;;;;;5020196;28;20059;-63
2023/01/26 08:46:43;;;;;;;8.35;2.50;;;;;;;;;;5018675;28;20060;-63
2023/01/26 08:49:17;;;;;;;5.13;2.53;;;;;;;;;;5068428;28;20040;-63
2023/01/26 08:51:48;;;;;;;17.25;2.75;;;;;;;;;;4991783;28;20052;-64
2023/01/26 08:54:18;;;;;;;5.50;2.13;;;;;;;;;;5008649;28;20062;-63
2023/01/26 08:56:48;;;;;;;7.63;2.45;;;;;;;;;;5008871;28;20057;-63
2023/01/26 08:59:18;;;;;;;10.80;2.70;;;;;;;;;;5011746;28;20536;-63
2023/01/26 09:01:49;;;;;;;6.20;2.53;;;;;;;;;;5012035;28;20061;-63
2023/01/26 09:04:19;;;;;;;5.95;2.72;;;;;;;;;;4955921;28;20050;-64
2023/01/26 09:06:49;;;;;;;7.03;2.63;;;;;;;;;;4950267;29;20066;-63
2023/01/26 09:09:19;;;;;;;8.55;2.92;;;;;;;;;;4949998;29;20059;-63
2023/01/26 09:11:50;;;;;;;4.95;2.67;;;;;;;;;;4934377;29;20059;-62
2023/01/26 09:14:20;;;;;;;6.30;2.60;;;;;;;;;;4934148;29;20055;-63
2023/01/26 09:16:50;;;;;;;7.63;3.10;;;;;;;;;;4886937;29;20059;-63
2023/01/26 09:19:21;;;;;;;7.22;3.20;;;;;;;;;;4919086;29;20055;-63
2023/01/26 09:21:54;;;;;;;7.05;3.53;;;;;;;;;;4918066;29;20058;-63
2023/01/26 09:24:25;;;;;;;6.05;3.50;;;;;;;;;;4950013;29;20059;-63
2023/01/26 09:26:55;;;;;;;11.05;3.63;;;;;;;;;;4933895;29;20559;-63
2023/01/26 09:29:25;;;;;;;12.43;3.40;;;;;;;;;;4958900;28;20058;-63
2023/01/26 09:31:56;;;;;;;6.47;2.97;;;;;;;;;;4968898;28;20054;-63
2023/01/26 09:34:27;;;;;;;10.82;3.53;;;;;;;;;;4969066;28;20175;-63
2023/01/26 09:36:57;;;;;;;7.55;2.80;;;;;;;;;;4933460;29;20564;-63
2023/01/26 09:39:27;;;;;;;7.47;3.45;;;;;;;;;;4949765;29;20066;-63
2023/01/26 09:42:22;;;;;;;7.32;3.13;;;;;;;;;;4949573;29;20534;-63
2023/01/26 09:45:12;;;;;;;9.40;3.42;;;;;;;;;;4962789;28;20057;-64
2023/01/26 09:47:52;;;;;;;6.60;2.90;;;;;;;;;;5008115;28;20049;-64
2023/01/26 09:50:31;;;;;;;9.77;3.10;;;;;;;;;;4995551;28;20621;-63
2023/01/26 09:53:18;;;;;;;6.13;2.22;;;;;;;;;;5012129;28;20061;-63
2023/01/26 09:55:49;;;;;;;5.63;2.47;;;;;;;;;;4963605;28;20090;-64
2023/01/26 09:58:22;;;;;;;9.52;3.53;;;;;;;;;;4995851;28;20062;-63
2023/01/26 10:00:59;;;;;;;9.40;3.85;;;;;;;;;;5011871;28;20431;-63
2023/01/26 10:03:45;;;;;;;6.97;3.50;;;;;;;;;;4995245;28;20102;-63
2023/01/26 10:06:31;;;;;;;9.93;4.55;;;;;;;;;;4979159;28;21264;-63
2023/01/26 10:09:31;;;;;;;7.80;3.20;;;;;;;;;;4961509;28;20055;-63
2023/01/26 10:12:15;;;;;;;7.15;3.40;;;;;;;;;;4924738;28;20074;-64
2023/01/26 10:14:51;;;;;;;9.75;3.20;;;;;;;;;;4972948;28;20050;-64
2023/01/26 10:17:42;;;;;;;7.95;2.70;;;;;;;;;;4956361;28;20059;-64
2023/01/26 10:20:15;;;;;;;7.50;3.10;;;;;;;;;;4972473;28;20585;-64
2023/01/26 10:22:49;;;;;;;9.70;3.00;;;;;;;;;;4956482;28;20061;-64
2023/01/26 10:25:43;;;;;;;6.05;2.70;;;;;;;;;;4957245;28;20058;-64
2023/01/26 10:28:15;;;;;;;6.47;3.22;;;;;;;;;;4972404;28;20070;-64
2023/01/26 10:30:47;;;;;;;;;;;;;;;;;;4956706;28;20051;-63
2023/01/26 10:33:34;;;;;;;12.77;2.55;;;;;;;;;;4956150;28;19922;-63
2023/01/26 10:36:06;;;;;;;7.47;2.60;;;;;;;;;;4924075;28;20566;-64
2023/01/26 10:38:37;;;;;;;7.53;2.60;;;;;;;;;;4940092;28;20435;-64
2023/01/26 10:41:16;;;;;;;8.95;2.50;;;;;;;;;;4952758;29;20059;-64
2023/01/26 10:44:01;;;;;;;6.47;2.20;;;;;;;;;;4933343;29;20051;-63
2023/01/26 10:46:41;;;;;;;10.48;2.47;;;;;;;;;;4928748;28;20053;-64
2023/01/26 10:49:16;;;;;;;12.05;2.50;;;;;;;;;;5030830;28;20154;-63
2023/01/26 10:52:16;;;;;;;9.45;2.72;;;;;;;;;;4981786;28;20584;-63
2023/01/26 10:54:47;;;;;;;5.90;2.95;;;;;;;;;;5030793;28;20072;-65
2023/01/26 10:57:25;;;;;;;5.03;2.40;;;;;;;;;;5030596;28;20501;-63
2023/01/26 11:00:10;;;;;;;8.10;2.00;;;;;;;;;;5030448;28;20057;-65
2023/01/26 11:03:08;;;;;;;5.85;2.33;;;;;;;;;;5030631;28;20052;-64
2023/01/26 11:05:40;;;;;;;7.47;2.58;;;;;;;;;;4952297;29;20059;-64
2023/01/26 11:08:38;;;;;;;6.78;2.80;;;;;;;;;;4952383;29;20055;-64
2023/01/26 11:11:26;;;;;;;8.65;2.35;;;;;;;;;;4920610;29;20515;-64
2023/01/26 11:14:17;;;;;;;10.02;2.40;;;;;;;;;;4952191;29;20050;-65
2023/01/26 11:16:59;;;;;;;4.85;2.25;;;;;;;;;;4952462;29;20059;-64
2023/01/26 11:19:46;;;;;;;3.85;1.65;;;;;;;;;;4924109;29;20405;-65
2023/01/26 11:22:46;;;;;;;2.60;1.40;;;;;;;;;;4965550;28;20511;-65
2023/01/26 11:25:53;;;;;;;3.78;1.77;;;;;;;;;;4971323;28;20058;-65
2023/01/26 11:28:45;;;;;;;6.75;2.08;;;;;;;;;;4971383;28;20496;-65
2023/01/26 11:32:13;;;;;;;2.63;1.13;;;;;;;;;;4971589;28;20059;-65
2023/01/26 11:35:09;;;;;;;3.90;1.27;;;;;;;;;;4914067;29;20489;-65
2023/01/26 11:38:10;;;;;;;5.25;1.42;;;;;;;;;;4897615;29;20056;-65
2023/01/26 11:40:41;;;;;;;11.35;5.53;;;;;;;;;;4897819;29;20409;-65
2023/01/26 11:43:31;;;;;;;6.10;2.10;;;;;;;;;;4948978;28;20419;-65
2023/01/26 11:46:23;;;;;;;5.20;1.85;;;;;;;;;;4971341;28;20062;-65
2023/01/26 11:49:15;;;;;;;5.95;1.45;;;;;;;;;;4971188;28;20071;-65
2023/01/26 11:52:23;;;;;;;7.15;1.30;;;;;;;;;;4923209;28;20050;-66
2023/01/26 11:55:24;;;;;;;3.13;1.52;;;;;;;;;;4932006;29;20058;-65
2023/01/26 11:58:19;;;;;;;6.00;1.60;;;;;;;;;;4907802;29;20052;-65
2023/01/26 12:00:54;;;;;;;2.70;1.40;;;;;;;;;;4931692;29;20060;-66
2023/01/26 12:03:26;;;;;;;3.45;1.27;;;;;;;;;;4898137;29;20095;-66
2023/01/26 12:06:13;;;;;;;8.63;1.70;;;;;;;;;;4894247;29;20068;-65
2023/01/26 12:09:09;;;;;;;2.75;1.30;;;;;;;;;;4912795;28;20063;-66
2023/01/26 12:11:57;;;;;;;2.97;1.45;;;;;;;;;;4937685;28;20051;-65
2023/01/26 12:14:43;;;;;;;3.60;1.30;;;;;;;;;;4969873;28;20051;-66
2023/01/26 12:17:39;;;;;;;2.83;1.45;;;;;;;;;;4970168;28;20067;-66
2023/01/26 12:20:26;;;;;;;3.38;1.30;;;;;;;;;;4969173;28;20062;-66
2023/01/26 12:23:27;;;;;;;2.88;1.40;;;;;;;;;;4968507;28;20077;-66
2023/01/26 12:26:08;;;;;;;4.50;1.30;;;;;;;;;;4992297;28;20046;-65
2023/01/26 12:28:44;;;;;;;2.65;1.33;;;;;;;;;;4972358;28;20042;-66
2023/01/26 12:31:43;;;;;;;3.15;1.13;;;;;;;;;;4983177;28;20058;-65
2023/01/26 12:34:14;;;;;;;2.33;1.23;;;;;;;;;;4987520;28;20065;-65
2023/01/26 12:36:51;;;;;;;3.30;1.23;;;;;;;;;;5026839;28;20084;-65
2023/01/26 12:39:21;;;;;;;3.10;1.30;;;;;;;;;;4979755;28;20544;-65
2023/01/26 12:42:08;;;;;;;3.40;1.58;;;;;;;;;;5024444;28;20162;-65
2023/01/26 12:44:43;;;;;;;2.28;1.20;;;;;;;;;;5027576;28;20049;-65
2023/01/26 12:47:42;;;;;;;3.60;1.40;;;;;;;;;;4993516;28;20100;-65
2023/01/26 12:50:34;;;;;;;2.20;1.20;;;;;;;;;;5034022;28;20052;-66
2023/01/26 12:53:13;;;;;;;3.20;1.10;;;;;;;;;;5046409;28;20436;-66
2023/01/26 12:55:49;;;;;;;3.05;1.35;;;;;;;;;;5046411;28;20508;-65
2023/01/26 12:58:31;;;;;;;2.58;1.25;;;;;;;;;;5028330;28;20428;-68
2023/01/26 13:01:10;;;;;;;3.55;1.17;;;;;;;;;;5047531;28;20072;-65
2023/01/26 13:03:50;;;;;;;2.53;1.33;;;;;;;;;;5061263;28;20499;-65
2023/01/26 13:06:24;;;;;;;2.78;1.33;;;;;;;;;;5072756;28;20063;-67
2023/01/26 13:09:00;;;;;;;1.98;1.15;;;;;;;;;;5054741;28;20060;-65
2023/01/26 13:11:38;;;;;;;3.67;1.17;;;;;;;;;;5031221;28;20092;-64
2023/01/26 13:14:27;;;;;;;2.08;1.13;;;;;;;;;;5037710;28;20053;-67
2023/01/26 13:17:17;;;;;;;2.10;1.02;;;;;;;;;;5035337;28;20057;-65
2023/01/26 13:19:48;;;;;;;4.15;1.10;;;;;;;;;;5012217;28;20049;-65
2023/01/26 13:22:19;;;;;;;5.95;2.35;;;;;;;;;;5011089;28;20041;-66
2023/01/26 13:25:17;;;;;;;2.90;1.25;;;;;;;;;;5038735;28;20060;-67
2023/01/26 13:27:56;;;;;;;2.83;1.30;;;;;;;;;;5031112;28;20049;-65
2023/01/26 13:30:39;;;;;;;1.75;1.10;;;;;;;;;;5038844;28;20046;-66
2023/01/26 13:33:27;;;;;;;2.08;1.10;;;;;;;;;;5041658;28;20504;-67
2023/01/26 13:36:02;;;;;;;1.90;0.95;;;;;;;;;;5011815;28;20561;-67
2023/01/26 13:38:54;;;;;;;3.53;1.23;;;;;;;;;;4996776;28;20061;-65
2023/01/26 13:41:25;;;;;;;4.15;1.30;;;;;;;;;;5022091;28;20054;-65
2023/01/26 13:44:19;;;;;;;2.65;1.40;;;;;;;;;;5022617;28;20509;-66
2023/01/26 13:47:05;;;;;;;2.03;1.00;;;;;;;;;;5023325;28;20049;-65
2023/01/26 13:49:42;;;;;;;1.58;1.25;;;;;;;;;;5050388;28;20048;-65
2023/01/26 13:52:21;;;;;;;;;;;;;;;;;;5061467;28;20049;-63
2023/01/26 13:54:54;;;;;;;2.40;1.20;;;;;;;;;;5058945;28;20411;-66
2023/01/26 13:57:27;;;;;;;1.88;1.25;;;;;;;;;;5043061;28;20059;-71
2023/01/26 13:59:59;;;;;;;5.07;1.35;;;;;;;;;;5061115;28;20057;-65
2023/01/26 14:02:37;;;;;;;1.92;1.17;;;;;;;;;;5034663;28;20418;-66
2023/01/26 14:05:22;;;;;;;1.80;1.23;;;;;;;;;;5061522;28;20040;-70
2023/01/26 14:07:52;;;;;;;2.65;1.40;;;;;;;;;;5051684;28;20809;-68
2023/01/26 14:10:23;;;;;;;1.90;1.20;;;;;;;;;;5056296;28;20060;-66
2023/01/26 14:12:56;;;;;;;2.70;1.20;;;;;;;;;;5066131;28;20497;-65
2023/01/26 14:15:29;;;;;;;4.07;1.55;;;;;;;;;;5045162;28;20059;-67
2023/01/26 14:18:03;;;;;;;3.17;1.65;;;;;;;;;;5066919;28;20080;-67
2023/01/26 14:20:38;;;;;;;2.53;1.40;;;;;;;;;;5067058;28;20064;-66
2023/01/26 14:23:12;;;;;;;3.00;1.73;;;;;;;;;;5033433;28;20068;-66
2023/01/26 14:26:05;;;;;;;4.18;1.65;;;;;;;;;;5067293;28;20052;-64
2023/01/26 14:28:40;;;;;;;5.20;1.73;;;;;;;;;;5067308;28;20044;-64
2023/01/26 14:31:20;;;;;;;2.78;1.40;;;;;;;;;;5067061;28;20067;-64
2023/01/26 14:33:57;;;;;;;3.47;1.45;;;;;;;;;;5025051;28;20045;-68
2023/01/26 14:36:35;;;;;;;1.88;1.40;;;;;;;;;;5027905;28;20049;-65
2023/01/26 14:39:17;;;;;;;3.78;1.50;;;;;;;;;;4998352;28;20049;-63
2023/01/26 14:41:49;;;;;;;4.75;2.00;;;;;;;;;;5030657;28;20060;-64
2023/01/26 14:44:19;;;;;;;2.97;1.40;;;;;;;;;;5014593;28;20041;-62
2023/01/26 14:47:03;;;;;;;4.03;1.27;;;;;;;;;;5005183;28;20054;-60
2023/01/26 14:49:58;;;;;;;1.60;1.23;;;;;;;;;;4974503;28;20506;-64
2023/01/26 14:52:37;;;;;;;2.50;1.25;;;;;;;;;;4994956;28;20062;-63
2023/01/26 14:55:21;;;;;;;1.58;1.15;;;;;;;;;;4969006;28;20510;-62
2023/01/26 14:57:52;;;;;;;3.35;1.20;;;;;;;;;;4981095;28;20045;-62
2023/01/26 15:00:31;;;;;;;3.10;1.17;;;;;;;;;;4981716;28;20061;-64
2023/01/26 15:03:11;;;;;;;3.33;1.48;;;;;;;;;;4998260;28;20053;-63
2023/01/26 15:05:42;;;;;;;2.67;1.00;;;;;;;;;;5030591;28;20150;-62
2023/01/26 15:08:23;;;;;;;6.65;1.13;;;;;;;;;;5014305;28;20506;-62
2023/01/26 15:12:15;;;;;;;2.38;1.15;;;;;;;;;;4991192;28;20059;-63
2023/01/26 15:13:52;;;;;;;2.10;1.10;;;;;;;;;;5067925;28;20053;-61
2023/01/26 15:16:25;;;;;;;2.17;1.20;;;;;;;;;;5033509;28;20563;-63
2023/01/26 15:19:01;;;;;;;2.17;1.33;;;;;;;;;;5017709;28;20060;-62
2023/01/26 15:21:39;;;;;;;1.60;1.00;;;;;;;;;;5033460;28;20048;-62
2023/01/26 15:24:14;;;;;;;2.78;1.10;;;;;;;;;;5011458;28;20083;-63
2023/01/26 15:26:45;;;;;;;2.85;1.23;;;;;;;;;;5072439;28;20420;-61
2023/01/26 15:29:21;;;;;;;2.60;1.10;;;;;;;;;;5071359;28;20515;-62
2023/01/26 15:31:54;;;;;;;2.30;1.08;;;;;;;;;;5092099;28;20036;-62
2023/01/26 15:34:35;;;;;;;1.60;1.10;;;;;;;;;;5040981;28;20059;-62
2023/01/26 15:37:34;;;;;;;1.88;1.23;;;;;;;;;;5092089;28;20412;-64
2023/01/26 15:40:06;;;;;;;1.33;1.05;;;;;;;;;;5091662;28;20040;-61
2023/01/26 15:42:37;;;;;;;3.28;1.00;;;;;;;;;;5029382;28;20517;-62
2023/01/26 15:45:23;;;;;;;3.78;0.90;;;;;;;;;;5029208;28;20058;-64
2023/01/26 15:47:54;;;;;;;2.97;1.30;;;;;;;;;;5013371;28;20053;-63
2023/01/26 15:50:24;;;;;;;3.20;1.30;;;;;;;;;;5013333;28;20052;-61
2023/01/26 15:52:57;;;;;;;1.88;0.88;;;;;;;;;;5029786;28;20057;-63
2023/01/26 15:55:30;;;;;;;1.35;1.00;;;;;;;;;;5029224;28;20052;-61
2023/01/26 15:58:00;;;;;;;2.15;0.77;;;;;;;;;;5029513;28;20037;-62
2023/01/26 16:00:31;;;;;;;2.42;1.10;;;;;;;;;;4980394;28;20065;-63
2023/01/26 16:03:06;;;;;;;1.73;1.17;;;;;;;;;;4996525;28;20046;-63
2023/01/26 16:05:36;;;;;;;1.80;1.05;;;;;;;;;;5029438;28;20045;-62
2023/01/26 16:08:07;;;;;;;1.90;1.60;;;;;;;;;;5009489;28;20406;-64
2023/01/26 16:10:38;;;;;;;2.00;1.45;;;;;;;;;;4954011;28;20066;-63
2023/01/26 16:13:09;;;;;;;2.42;1.08;;;;;;;;;;4938011;28;20169;-62
2023/01/26 16:15:44;;;;;;;2.75;1.13;;;;;;;;;;4969961;28;20043;-63
2023/01/26 16:18:15;;;;;;;1.92;1.20;;;;;;;;;;4970490;28;20063;-66
2023/01/26 16:20:47;;;;;;;2.08;1.10;;;;;;;;;;4949119;28;20061;-62
2023/01/26 16:23:23;;;;;;;3.92;1.10;;;;;;;;;;5009259;28;20057;-63
2023/01/26 16:25:54;;;;;;;1.92;1.33;;;;;;;;;;5009131;28;20054;-66
2023/01/26 16:28:25;;;;;;;1.83;1.35;;;;;;;;;;4992967;28;20065;-63
2023/01/26 16:30:55;;;;;;;1.58;1.05;;;;;;;;;;4976599;28;20129;-64